Fenwick Island, Delaware
Current Conditions -  °F | °C
As of 4:53 AM on Tuesday 21 Oct 2014 (Local Time) from KOXB Reporting Station
Scattered Clouds Scattered Clouds  
Wind Chill: 60°   Ceiling: Unl
Heat Index: 60°   Visibility: 10mi
Dew Point: 55°   Wind: 7mph
Humidity: 83%   Direction: 250°WSW
Pressure: 29.89"   Gusts: NA
Location:  38.46°N, 75.05°W
Report Text: KOXB 210853Z AUTO 25006KT 10SM SCT110 16/13 A2989 RMK AO2 SLP123 T01560128 56017 TSNO
Loading
Personal Weather Stations






























Interactive Weather Map
Tropical Storm Tracking
New forecast layout! Learn more

10-Day Weather Forecast

Advertisements
Track Severe Weather on mobile